sensor_id;sensor_type;location;lat;lon;timestamp;pressure;altitude;pressure_sealevel;temperature;humidity
47054;BME280;32811;52.382;5.270;2023-04-09T00:01:33;102730.19;;;7.40;100.00
47054;BME280;32811;52.382;5.270;2023-04-09T00:03:59;102716.09;;;7.32;100.00
47054;BME280;32811;52.382;5.270;2023-04-09T00:06:26;102734.69;;;7.44;100.00
47054;BME280;32811;52.382;5.270;2023-04-09T00:08:53;102738.19;;;7.46;100.00
47054;BME280;32811;52.382;5.270;2023-04-09T00:11:20;102736.50;;;7.46;100.00
47054;BME280;32811;52.382;5.270;2023-04-09T00:13:47;102727.03;;;7.45;100.00
47054;BME280;32811;52.382;5.270;2023-04-09T00:16:13;102730.41;;;7.44;100.00
47054;BME280;32811;52.382;5.270;2023-04-09T00:18:40;102727.84;;;7.44;100.00
47054;BME280;32811;52.382;5.270;2023-04-09T00:21:07;102729.66;;;7.47;100.00
47054;BME280;32811;52.382;5.270;2023-04-09T00:23:34;102730.41;;;7.44;100.00
47054;BME280;32811;52.382;5.270;2023-04-09T00:26:01;102715.66;;;7.40;100.00
47054;BME280;32811;52.382;5.270;2023-04-09T00:28:28;102715.53;;;7.37;100.00
47054;BME280;32811;52.382;5.270;2023-04-09T00:30:55;102727.94;;;7.46;100.00
47054;BME280;32811;52.382;5.270;2023-04-09T00:33:22;102683.09;;;7.21;100.00
47054;BME280;32811;52.382;5.270;2023-04-09T00:35:49;102713.91;;;7.39;100.00
47054;BME280;32811;52.382;5.270;2023-04-09T00:38:15;102692.09;;;7.31;100.00
47054;BME280;32811;52.382;5.270;2023-04-09T00:40:42;102715.78;;;7.43;100.00
47054;BME280;32811;52.382;5.270;2023-04-09T00:43:09;102705.38;;;7.40;100.00
47054;BME280;32811;52.382;5.270;2023-04-09T00:45:36;102709.94;;;7.46;100.00
47054;BME280;32811;52.382;5.270;2023-04-09T00:48:03;102712.34;;;7.43;100.00
47054;BME280;32811;52.382;5.270;2023-04-09T00:50:30;102694.97;;;7.37;100.00
47054;BME280;32811;52.382;5.270;2023-04-09T00:52:56;102707.06;;;7.40;100.00
47054;BME280;32811;52.382;5.270;2023-04-09T00:55:24;102670.25;;;7.21;100.00
47054;BME280;32811;52.382;5.270;2023-04-09T00:57:50;102708.06;;;7.43;100.00
47054;BME280;32811;52.382;5.270;2023-04-09T01:00:17;102659.75;;;7.17;100.00
47054;BME280;32811;52.382;5.270;2023-04-09T01:02:44;102709.13;;;7.47;100.00
47054;BME280;32811;52.382;5.270;2023-04-09T01:05:11;102697.66;;;7.40;100.00
47054;BME280;32811;52.382;5.270;2023-04-09T01:07:59;102703.75;;;7.42;100.00
47054;BME280;32811;52.382;5.270;2023-04-09T01:10:34;102686.66;;;7.43;100.00
47054;BME280;32811;52.382;5.270;2023-04-09T01:13:10;102698.72;;;7.44;100.00
47054;BME280;32811;52.382;5.270;2023-04-09T01:15:52;102702.06;;;7.43;100.00
47054;BME280;32811;52.382;5.270;2023-04-09T01:21:09;102668.84;;;7.28;100.00
47054;BME280;32811;52.382;5.270;2023-04-09T01:29:21;102677.13;;;7.40;100.00
47054;BME280;32811;52.382;5.270;2023-04-09T01:31:50;102686.66;;;7.43;100.00
47054;BME280;32811;52.382;5.270;2023-04-09T01:34:18;102681.50;;;7.43;100.00
47054;BME280;32811;52.382;5.270;2023-04-09T01:36:51;102679.78;;;7.42;100.00
47054;BME280;32811;52.382;5.270;2023-04-09T01:39:19;102681.47;;;7.41;100.00
47054;BME280;32811;52.382;5.270;2023-04-09T01:41:48;102680.66;;;7.42;100.00
47054;BME280;32811;52.382;5.270;2023-04-09T01:44:16;102671.09;;;7.40;100.00
47054;BME280;32811;52.382;5.270;2023-04-09T01:46:45;102677.25;;;7.43;100.00
47054;BME280;32811;52.382;5.270;2023-04-09T01:49:13;102676.38;;;7.43;100.00
47054;BME280;32811;52.382;5.270;2023-04-09T01:51:40;102670.56;;;7.47;100.00
47054;BME280;32811;52.382;5.270;2023-04-09T01:54:07;102678.41;;;7.50;100.00
47054;BME280;32811;52.382;5.270;2023-04-09T01:56:41;102668.09;;;7.48;100.00
47054;BME280;32811;52.382;5.270;2023-04-09T01:59:07;102660.16;;;7.44;100.00
47054;BME280;32811;52.382;5.270;2023-04-09T02:01:44;102673.16;;;7.47;100.00
47054;BME280;32811;52.382;5.270;2023-04-09T02:04:38;102673.22;;;7.48;100.00
47054;BME280;32811;52.382;5.270;2023-04-09T02:07:09;102668.88;;;7.47;100.00
47054;BME280;32811;52.382;5.270;2023-04-09T02:09:38;102676.53;;;7.46;100.00
47054;BME280;32811;52.382;5.270;2023-04-09T02:12:08;102674.75;;;7.45;100.00
47054;BME280;32811;52.382;5.270;2023-04-09T02:14:36;102673.00;;;7.44;100.00
47054;BME280;32811;52.382;5.270;2023-04-09T02:17:03;102667.13;;;7.46;100.00
47054;BME280;32811;52.382;5.270;2023-04-09T02:19:40;102667.94;;;7.45;100.00
47054;BME280;32811;52.382;5.270;2023-04-09T02:22:08;102664.47;;;7.45;100.00
47054;BME280;32811;52.382;5.270;2023-04-09T02:24:36;102671.41;;;7.46;100.00
47054;BME280;32811;52.382;5.270;2023-04-09T02:27:03;102666.25;;;7.46;100.00
47054;BME280;32811;52.382;5.270;2023-04-09T02:29:30;102660.09;;;7.42;100.00
47054;BME280;32811;52.382;5.270;2023-04-09T02:31:57;102668.97;;;7.49;100.00
47054;BME280;32811;52.382;5.270;2023-04-09T02:34:23;102669.53;;;7.43;100.00
47054;BME280;32811;52.382;5.270;2023-04-09T02:36:50;102671.31;;;7.44;100.00
47054;BME280;32811;52.382;5.270;2023-04-09T02:39:17;102667.78;;;7.42;100.00
47054;BME280;32811;52.382;5.270;2023-04-09T02:41:43;102657.44;;;7.41;100.00
47054;BME280;32811;52.382;5.270;2023-04-09T02:44:10;102658.56;;;7.46;100.00
47054;BME280;32811;52.382;5.270;2023-04-09T02:46:37;102660.16;;;7.44;100.00
47054;BME280;32811;52.382;5.270;2023-04-09T02:49:04;102657.44;;;7.41;100.00
47054;BME280;32811;52.382;5.270;2023-04-09T02:51:33;102651.50;;;7.42;100.00
47054;BME280;32811;52.382;5.270;2023-04-09T02:54:01;102653.91;;;7.39;100.00
47054;BME280;32811;52.382;5.270;2023-04-09T02:56:28;102654.00;;;7.40;100.00
47054;BME280;32811;52.382;5.270;2023-04-09T02:58:54;102656.69;;;7.43;100.00
47054;BME280;32811;52.382;5.270;2023-04-09T03:01:21;102650.69;;;7.43;100.00
47054;BME280;32811;52.382;5.270;2023-04-09T03:03:48;102651.50;;;7.42;100.00
47054;BME280;32811;52.382;5.270;2023-04-09T03:06:14;102645.41;;;7.40;100.00
47054;BME280;32811;52.382;5.270;2023-04-09T03:08:41;102644.53;;;7.39;100.00
47054;BME280;32811;52.382;5.270;2023-04-09T03:11:08;102647.16;;;7.41;100.00
47054;BME280;32811;52.382;5.270;2023-04-09T03:13:34;102642.03;;;7.41;100.00
47054;BME280;32811;52.382;5.270;2023-04-09T03:16:01;102643.63;;;7.39;100.00
47054;BME280;32811;52.382;5.270;2023-04-09T03:18:27;102641.06;;;7.39;100.00
47054;BME280;32811;52.382;5.270;2023-04-09T03:20:54;102644.59;;;7.41;100.00
47054;BME280;32811;52.382;5.270;2023-04-09T03:23:20;102640.19;;;7.38;100.00
47054;BME280;32811;52.382;5.270;2023-04-09T03:25:47;102642.78;;;7.38;100.00
47054;BME280;32811;52.382;5.270;2023-04-09T03:28:14;102640.28;;;7.40;100.00
47054;BME280;32811;52.382;5.270;2023-04-09T03:30:40;102641.16;;;7.40;100.00
47054;BME280;32811;52.382;5.270;2023-04-09T03:33:07;102624.88;;;7.40;100.00
47054;BME280;32811;52.382;5.270;2023-04-09T03:35:34;102628.31;;;7.40;100.00
47054;BME280;32811;52.382;5.270;2023-04-09T03:38:00;102623.09;;;7.39;100.00
47054;BME280;32811;52.382;5.270;2023-04-09T03:40:27;102616.22;;;7.38;100.00
47054;BME280;32811;52.382;5.270;2023-04-09T03:42:53;102620.72;;;7.43;100.00
47054;BME280;32811;52.382;5.270;2023-04-09T03:45:20;102620.69;;;7.42;100.00
47054;BME280;32811;52.382;5.270;2023-04-09T03:47:46;102623.25;;;7.42;100.00
47054;BME280;32811;52.382;5.270;2023-04-09T03:50:13;102625.81;;;7.42;100.00
47054;BME280;32811;52.382;5.270;2023-04-09T03:52:39;102614.59;;;7.40;100.00
47054;BME280;32811;52.382;5.270;2023-04-09T03:55:07;102620.69;;;7.42;100.00
47054;BME280;32811;52.382;5.270;2023-04-09T03:57:33;102617.16;;;7.40;100.00
47054;BME280;32811;52.382;5.270;2023-04-09T04:00:00;102612.09;;;7.41;100.00
47054;BME280;32811;52.382;5.270;2023-04-09T04:02:27;102617.25;;;7.41;100.00
47054;BME280;32811;52.382;5.270;2023-04-09T04:04:56;102616.41;;;7.42;100.00
47054;BME280;32811;52.382;5.270;2023-04-09T04:07:23;102606.50;;;7.32;100.00
47054;BME280;32811;52.382;5.270;2023-04-09T04:09:49;102617.16;;;7.40;100.00
47054;BME280;32811;52.382;5.270;2023-04-09T04:12:16;102612.97;;;7.42;100.00
47054;BME280;32811;52.382;5.270;2023-04-09T04:14:43;102607.63;;;7.37;100.00
47054;BME280;32811;52.382;5.270;2023-04-09T04:17:09;102606.22;;;7.44;100.00
47054;BME280;32811;52.382;5.270;2023-04-09T04:19:36;102613.97;;;7.45;100.00
47054;BME280;32811;52.382;5.270;2023-04-09T04:22:02;102607.97;;;7.45;100.00
47054;BME280;32811;52.382;5.270;2023-04-09T04:24:29;102589.78;;;7.40;100.00
47054;BME280;32811;52.382;5.270;2023-04-09T04:26:55;102597.69;;;7.45;100.00
47054;BME280;32811;52.382;5.270;2023-04-09T04:29:22;102601.88;;;7.43;100.00
47054;BME280;32811;52.382;5.270;2023-04-09T04:31:48;102604.59;;;7.46;100.00
47054;BME280;32811;52.382;5.270;2023-04-09T04:34:15;102599.38;;;7.44;100.00
47054;BME280;32811;52.382;5.270;2023-04-09T04:36:42;102597.69;;;7.45;100.00
47054;BME280;32811;52.382;5.270;2023-04-09T04:39:08;102598.63;;;7.47;100.00
47054;BME280;32811;52.382;5.270;2023-04-09T04:41:35;102586.25;;;7.38;100.00
47054;BME280;32811;52.382;5.270;2023-04-09T04:44:01;102598.56;;;7.45;100.00
47054;BME280;32811;52.382;5.270;2023-04-09T04:46:28;102606.22;;;7.44;100.00
47054;BME280;32811;52.382;5.270;2023-04-09T04:48:54;102597.78;;;7.46;100.00
47054;BME280;32811;52.382;5.270;2023-04-09T04:51:21;102602.81;;;7.45;100.00
47054;BME280;32811;52.382;5.270;2023-04-09T04:53:48;102601.94;;;7.44;100.00
47054;BME280;32811;52.382;5.270;2023-04-09T04:56:14;102608.13;;;7.48;100.00
47054;BME280;32811;52.382;5.270;2023-04-09T04:58:41;102603.91;;;7.50;100.00
47054;BME280;32811;52.382;5.270;2023-04-09T05:01:08;102607.38;;;7.51;100.00
47054;BME280;32811;52.382;5.270;2023-04-09T05:03:35;102607.38;;;7.51;100.00
47054;BME280;32811;52.382;5.270;2023-04-09T05:06:02;102598.56;;;7.45;100.00
47054;BME280;32811;52.382;5.270;2023-04-09T05:08:28;102608.16;;;7.49;100.00
47054;BME280;32811;52.382;5.270;2023-04-09T05:10:55;102608.13;;;7.48;100.00
47054;BME280;32811;52.382;5.270;2023-04-09T05:13:22;102620.16;;;7.49;100.00
47054;BME280;32811;52.382;5.270;2023-04-09T05:15:49;102609.00;;;7.48;100.00
47054;BME280;32811;52.382;5.270;2023-04-09T05:18:16;102602.97;;;7.48;100.00
47054;BME280;32811;52.382;5.270;2023-04-09T05:20:42;102606.47;;;7.50;100.00
47054;BME280;32811;52.382;5.270;2023-04-09T05:23:09;102603.69;;;7.45;100.00
47054;BME280;32811;52.382;5.270;2023-04-09T05:25:35;102602.81;;;7.45;100.00
47054;BME280;32811;52.382;5.270;2023-04-09T05:28:02;102612.31;;;7.46;100.00
47054;BME280;32811;52.382;5.270;2023-04-09T05:30:29;102607.84;;;7.42;100.00
47054;BME280;32811;52.382;5.270;2023-04-09T05:32:55;102613.19;;;7.46;100.00
47054;BME280;32811;52.382;5.270;2023-04-09T05:35:22;102612.22;;;7.44;100.00
47054;BME280;32811;52.382;5.270;2023-04-09T05:37:48;102620.81;;;7.45;100.00
47054;BME280;32811;52.382;5.270;2023-04-09T05:40:15;102614.81;;;7.44;100.00
47054;BME280;32811;52.382;5.270;2023-04-09T05:42:42;102624.25;;;7.45;100.00
47054;BME280;32811;52.382;5.270;2023-04-09T05:45:08;102618.97;;;7.42;100.00
47054;BME280;32811;52.382;5.270;2023-04-09T05:47:35;102621.63;;;7.44;100.00
47054;BME280;32811;52.382;5.270;2023-04-09T05:50:02;102625.00;;;7.43;100.00
47054;BME280;32811;52.382;5.270;2023-04-09T05:52:29;102619.84;;;7.43;100.00
47054;BME280;32811;52.382;5.270;2023-04-09T05:54:56;102625.00;;;7.43;100.00
47054;BME280;32811;52.382;5.270;2023-04-09T05:57:22;102614.59;;;7.40;100.00
47054;BME280;32811;52.382;5.270;2023-04-09T05:59:49;102628.69;;;7.48;100.00
47054;BME280;32811;52.382;5.270;2023-04-09T06:02:15;102623.66;;;7.51;100.00
47054;BME280;32811;52.382;5.270;2023-04-09T06:04:42;102627.03;;;7.50;100.00
47054;BME280;32811;52.382;5.270;2023-04-09T06:07:09;102625.38;;;7.51;100.00
47054;BME280;32811;52.382;5.270;2023-04-09T06:09:36;102620.97;;;7.48;100.00
47054;BME280;32811;52.382;5.270;2023-04-09T06:12:03;102618.41;;;7.48;100.00
47054;BME280;32811;52.382;5.270;2023-04-09T06:14:30;102623.66;;;7.51;100.00
47054;BME280;32811;52.382;5.270;2023-04-09T06:16:58;102628.81;;;7.51;100.00
47054;BME280;32811;52.382;5.270;2023-04-09T06:19:25;102621.03;;;7.49;100.00
47054;BME280;32811;52.382;5.270;2023-04-09T06:21:52;102636.66;;;7.54;100.00
47054;BME280;32811;52.382;5.270;2023-04-09T06:24:18;102639.22;;;7.54;100.00
47054;BME280;32811;52.382;5.270;2023-04-09T06:26:45;102636.66;;;7.54;100.00
47054;BME280;32811;52.382;5.270;2023-04-09T06:29:11;102633.41;;;7.58;100.00
47054;BME280;32811;52.382;5.270;2023-04-09T06:31:38;102636.84;;;7.59;100.00
47054;BME280;32811;52.382;5.270;2023-04-09T06:34:05;102630.91;;;7.60;100.00
47054;BME280;32811;52.382;5.270;2023-04-09T06:36:32;102641.19;;;7.60;100.00
47054;BME280;32811;52.382;5.270;2023-04-09T06:38:59;102644.44;;;7.56;100.00
47054;BME280;32811;52.382;5.270;2023-04-09T06:41:26;102642.00;;;7.59;100.00
47054;BME280;32811;52.382;5.270;2023-04-09T06:43:53;102636.81;;;7.57;100.00
47054;BME280;32811;52.382;5.270;2023-04-09T06:46:20;102640.66;;;7.67;100.00
47054;BME280;32811;52.382;5.270;2023-04-09T06:48:46;102642.16;;;7.62;100.00
47054;BME280;32811;52.382;5.270;2023-04-09T06:51:13;102635.53;;;7.67;100.00
47054;BME280;32811;52.382;5.270;2023-04-09T06:53:40;102644.06;;;7.66;100.00
47054;BME280;32811;52.382;5.270;2023-04-09T06:56:07;102637.22;;;7.66;100.00
47054;BME280;32811;52.382;5.270;2023-04-09T06:58:34;102641.53;;;7.67;100.00
47054;BME280;32811;52.382;5.270;2023-04-09T07:01:01;102650.19;;;7.69;100.00
47054;BME280;32811;52.382;5.270;2023-04-09T07:03:28;102640.75;;;7.68;100.00
47054;BME280;32811;52.382;5.270;2023-04-09T07:05:55;102651.16;;;7.72;100.00
47054;BME280;32811;52.382;5.270;2023-04-09T07:08:23;102642.44;;;7.68;100.00
47054;BME280;32811;52.382;5.270;2023-04-09T07:10:50;102645.13;;;7.71;100.00
47054;BME280;32811;52.382;5.270;2023-04-09T07:13:16;102642.69;;;7.74;100.00
47054;BME280;32811;52.382;5.270;2023-04-09T07:15:43;102640.88;;;7.72;100.00
47054;BME280;32811;52.382;5.270;2023-04-09T07:18:09;102644.59;;;7.78;100.00
47054;BME280;32811;52.382;5.270;2023-04-09T07:20:36;102653.16;;;7.79;100.00
47054;BME280;32811;52.382;5.270;2023-04-09T07:23:03;102655.16;;;7.84;100.00
47054;BME280;32811;52.382;5.270;2023-04-09T07:25:29;102648.25;;;7.83;100.00
47054;BME280;32811;52.382;5.270;2023-04-09T07:27:56;102650.81;;;7.83;100.00
47054;BME280;32811;52.382;5.270;2023-04-09T07:30:22;102655.22;;;7.86;100.00
47054;BME280;32811;52.382;5.270;2023-04-09T07:32:49;102654.41;;;7.87;100.00
47054;BME280;32811;52.382;5.270;2023-04-09T07:35:16;102653.53;;;7.86;100.00
47054;BME280;32811;52.382;5.270;2023-04-09T07:37:44;102655.22;;;7.86;100.00
47054;BME280;32811;52.382;5.270;2023-04-09T07:40:10;102651.84;;;7.87;100.00
47054;BME280;32811;52.382;5.270;2023-04-09T07:42:38;102649.34;;;7.88;100.00
47054;BME280;32811;52.382;5.270;2023-04-09T07:45:05;102643.28;;;7.88;100.00
47054;BME280;32811;52.382;5.270;2023-04-09T07:47:32;102654.69;;;7.93;100.00
47054;BME280;32811;52.382;5.270;2023-04-09T07:49:59;102655.69;;;7.97;100.00
47054;BME280;32811;52.382;5.270;2023-04-09T07:52:25;102648.16;;;8.01;100.00
47054;BME280;32811;52.382;5.270;2023-04-09T07:54:52;102648.66;;;8.12;100.00
47054;BME280;32811;52.382;5.270;2023-04-09T07:57:19;102642.34;;;8.25;100.00
47054;BME280;32811;52.382;5.270;2023-04-09T07:59:45;102643.59;;;8.35;100.00
47054;BME280;32811;52.382;5.270;2023-04-09T08:02:12;102643.81;;;8.39;100.00
47054;BME280;32811;52.382;5.270;2023-04-09T08:04:40;102644.94;;;8.44;100.00
47054;BME280;32811;52.382;5.270;2023-04-09T08:07:08;102637.41;;;8.49;100.00
47054;BME280;32811;52.382;5.270;2023-04-09T08:09:34;102641.78;;;8.51;100.00
47054;BME280;32811;52.382;5.270;2023-04-09T08:12:01;102643.69;;;8.56;100.00
47054;BME280;32811;52.382;5.270;2023-04-09T08:14:27;102640.66;;;8.66;100.00
47054;BME280;32811;52.382;5.270;2023-04-09T08:16:54;102635.66;;;8.69;100.00
47054;BME280;32811;52.382;5.270;2023-04-09T08:19:21;102640.22;;;8.76;100.00
47054;BME280;32811;52.382;5.270;2023-04-09T08:21:48;102632.75;;;8.82;100.00
47054;BME280;32811;52.382;5.270;2023-04-09T08:24:15;102643.44;;;8.91;100.00
47054;BME280;32811;52.382;5.270;2023-04-09T08:26:42;102642.22;;;9.04;100.00
47054;BME280;32811;52.382;5.270;2023-04-09T08:29:09;102641.69;;;9.13;100.00
47054;BME280;32811;52.382;5.270;2023-04-09T08:31:37;102635.47;;;9.29;100.00
47054;BME280;32811;52.382;5.270;2023-04-09T08:34:04;102639.00;;;9.55;100.00
47054;BME280;32811;52.382;5.270;2023-04-09T08:36:31;102634.50;;;9.72;100.00
47054;BME280;32811;52.382;5.270;2023-04-09T08:38:58;102640.38;;;9.92;100.00
47054;BME280;32811;52.382;5.270;2023-04-09T08:41:27;102635.75;;;10.07;100.00
47054;BME280;32811;52.382;5.270;2023-04-09T08:43:55;102639.03;;;10.27;100.00
47054;BME280;32811;52.382;5.270;2023-04-09T08:46:24;102635.31;;;10.43;100.00
47054;BME280;32811;52.382;5.270;2023-04-09T08:48:52;102622.34;;;10.42;100.00
47054;BME280;32811;52.382;5.270;2023-04-09T08:51:21;102625.69;;;10.65;100.00
47054;BME280;32811;52.382;5.270;2023-04-09T08:53:53;102616.97;;;10.61;100.00
47054;BME280;32811;52.382;5.270;2023-04-09T08:56:22;102614.47;;;10.64;100.00
47054;BME280;32811;52.382;5.270;2023-04-09T08:58:49;102613.25;;;10.53;100.00
47054;BME280;32811;52.382;5.270;2023-04-09T09:01:22;102617.91;;;10.63;100.00
47054;BME280;32811;52.382;5.270;2023-04-09T09:03:55;102617.59;;;10.54;100.00
47054;BME280;32811;52.382;5.270;2023-04-09T09:06:24;102613.63;;;10.64;100.00
47054;BME280;32811;52.382;5.270;2023-04-09T09:11:33;102617.56;;;10.79;100.00
47054;BME280;32811;52.382;5.270;2023-04-09T09:14:02;102603.34;;;10.92;100.00
47054;BME280;32811;52.382;5.270;2023-04-09T09:16:29;102614.44;;;11.18;100.00
47054;BME280;32811;52.382;5.270;2023-04-09T09:18:58;102593.75;;;11.77;100.00
47054;BME280;32811;52.382;5.270;2023-04-09T09:21:26;102609.50;;;11.55;100.00
47054;BME280;32811;52.382;5.270;2023-04-09T09:23:54;102605.56;;;11.37;100.00
47054;BME280;32811;52.382;5.270;2023-04-09T09:26:26;102605.41;;;11.61;100.00
47054;BME280;32811;52.382;5.270;2023-04-09T09:28:54;102598.38;;;11.88;100.00
47054;BME280;32811;52.382;5.270;2023-04-09T09:31:22;102597.56;;;12.22;100.00
47054;BME280;32811;52.382;5.270;2023-04-09T09:33:49;102590.09;;;12.34;100.00
47054;BME280;32811;52.382;5.270;2023-04-09T09:36:33;102583.06;;;11.95;100.00
47054;BME280;32811;52.382;5.270;2023-04-09T09:39:01;102593.81;;;11.79;100.00
47054;BME280;32811;52.382;5.270;2023-04-09T09:41:30;102586.69;;;11.72;100.00
47054;BME280;32811;52.382;5.270;2023-04-09T09:43:57;102586.00;;;11.77;100.00
47054;BME280;32811;52.382;5.270;2023-04-09T09:46:24;102589.22;;;11.69;100.00
47054;BME280;32811;52.382;5.270;2023-04-09T09:48:51;102587.09;;;11.86;100.00
47054;BME280;32811;52.382;5.270;2023-04-09T09:51:21;102575.38;;;11.98;100.00
47054;BME280;32811;52.382;5.270;2023-04-09T09:53:54;102580.56;;;12.66;100.00
47054;BME280;32811;52.382;5.270;2023-04-09T09:56:23;102578.09;;;12.73;100.00
47054;BME280;32811;52.382;5.270;2023-04-09T09:59:17;102567.44;;;12.60;100.00
47054;BME280;32811;52.382;5.270;2023-04-09T10:01:47;102575.03;;;12.53;100.00
47054;BME280;32811;52.382;5.270;2023-04-09T10:04:14;102572.72;;;12.65;100.00
47054;BME280;32811;52.382;5.270;2023-04-09T10:06:43;102574.44;;;12.28;100.00
47054;BME280;32811;52.382;5.270;2023-04-09T10:09:10;102569.34;;;11.98;100.00
47054;BME280;32811;52.382;5.270;2023-04-09T10:11:38;102571.34;;;12.08;100.00
47054;BME280;32811;52.382;5.270;2023-04-09T10:14:08;102573.44;;;12.23;100.00
47054;BME280;32811;52.382;5.270;2023-04-09T10:16:35;102563.34;;;11.99;100.00
47054;BME280;32811;52.382;5.270;2023-04-09T10:19:02;102553.78;;;12.31;100.00
47054;BME280;32811;52.382;5.270;2023-04-09T10:21:42;102558.06;;;12.29;100.00
47054;BME280;32811;52.382;5.270;2023-04-09T10:24:10;102552.44;;;12.47;100.00
47054;BME280;32811;52.382;5.270;2023-04-09T10:26:40;102535.09;;;12.81;100.00
47054;BME280;32811;52.382;5.270;2023-04-09T10:29:09;102543.59;;;13.15;100.00
47054;BME280;32811;52.382;5.270;2023-04-09T10:32:04;102534.00;;;13.52;100.00
47054;BME280;32811;52.382;5.270;2023-04-09T10:34:37;102533.09;;;13.97;100.00
47054;BME280;32811;52.382;5.270;2023-04-09T10:37:06;102534.22;;;13.62;100.00
47054;BME280;32811;52.382;5.270;2023-04-09T10:39:39;102528.56;;;13.39;100.00
47054;BME280;32811;52.382;5.270;2023-04-09T10:42:10;102530.56;;;13.53;100.00
47054;BME280;32811;52.382;5.270;2023-04-09T10:44:39;102524.94;;;13.29;100.00
47054;BME280;32811;52.382;5.270;2023-04-09T10:47:08;102522.09;;;13.61;100.00
47054;BME280;32811;52.382;5.270;2023-04-09T10:49:40;102523.63;;;13.52;100.00
47054;BME280;32811;52.382;5.270;2023-04-09T10:52:11;102515.28;;;13.68;100.00
47054;BME280;32811;52.382;5.270;2023-04-09T10:54:43;102514.00;;;13.44;100.00
47054;BME280;32811;52.382;5.270;2023-04-09T10:57:13;102519.34;;;13.54;100.00
47054;BME280;32811;52.382;5.270;2023-04-09T10:59:50;102514.97;;;13.08;100.00
47054;BME280;32811;52.382;5.270;2023-04-09T11:07:53;102496.59;;;12.98;100.00
47054;BME280;32811;52.382;5.270;2023-04-09T11:10:21;102506.09;;;12.97;100.00
47054;BME280;32811;52.382;5.270;2023-04-09T11:12:48;102496.69;;;13.02;100.00
47054;BME280;32811;52.382;5.270;2023-04-09T11:15:16;102484.19;;;12.83;100.00
47054;BME280;32811;52.382;5.270;2023-04-09T11:17:45;102493.06;;;12.94;100.00
47054;BME280;32811;52.382;5.270;2023-04-09T11:20:13;102490.69;;;13.05;100.00
47054;BME280;32811;52.382;5.270;2023-04-09T11:22:40;102482.78;;;12.97;100.00
47054;BME280;32811;52.382;5.270;2023-04-09T11:25:07;102487.25;;;13.06;100.00
47054;BME280;32811;52.382;5.270;2023-04-09T11:27:37;102481.81;;;13.35;100.00
47054;BME280;32811;52.382;5.270;2023-04-09T11:30:04;102471.50;;;13.38;100.00
47054;BME280;32811;52.382;5.270;2023-04-09T11:32:31;102467.44;;;14.04;100.00
47054;BME280;32811;52.382;5.270;2023-04-09T11:34:58;102455.63;;;14.21;100.00
47054;BME280;32811;52.382;5.270;2023-04-09T11:37:25;102457.31;;;14.79;100.00
47054;BME280;32811;52.382;5.270;2023-04-09T11:39:52;102459.75;;;14.66;100.00
47054;BME280;32811;52.382;5.270;2023-04-09T11:42:23;102458.03;;;14.65;100.00
47054;BME280;32811;52.382;5.270;2023-04-09T11:44:51;102464.63;;;15.07;100.00
47054;BME280;32811;52.382;5.270;2023-04-09T11:47:19;102454.50;;;15.35;100.00
47054;BME280;32811;52.382;5.270;2023-04-09T11:49:46;102468.38;;;15.34;100.00
47054;BME280;32811;52.382;5.270;2023-04-09T11:52:13;102459.53;;;15.17;100.00
47054;BME280;32811;52.382;5.270;2023-04-09T11:54:47;102462.63;;;14.86;92.85
47054;BME280;32811;52.382;5.270;2023-04-09T11:57:14;102458.06;;;14.67;100.00
47054;BME280;32811;52.382;5.270;2023-04-09T11:59:41;102463.22;;;14.65;86.81
47054;BME280;32811;52.382;5.270;2023-04-09T12:02:08;102454.59;;;14.13;93.86
47054;BME280;32811;52.382;5.270;2023-04-09T12:04:35;102451.72;;;14.51;100.00
47054;BME280;32811;52.382;5.270;2023-04-09T12:07:01;102456.75;;;14.39;100.00
47054;BME280;32811;52.382;5.270;2023-04-09T12:09:28;102464.13;;;14.12;100.00
47054;BME280;32811;52.382;5.270;2023-04-09T12:11:55;102453.84;;;14.19;100.00
47054;BME280;32811;52.382;5.270;2023-04-09T12:14:22;102436.16;;;13.95;100.00
47054;BME280;32811;52.382;5.270;2023-04-09T12:16:50;102442.53;;;14.15;100.00
47054;BME280;32811;52.382;5.270;2023-04-09T12:19:17;102443.13;;;13.97;100.00
47054;BME280;32811;52.382;5.270;2023-04-09T12:21:50;102453.03;;;14.21;100.00
47054;BME280;32811;52.382;5.270;2023-04-09T12:24:19;102461.75;;;14.26;90.46
47054;BME280;32811;52.382;5.270;2023-04-09T12:26:47;102444.41;;;14.24;87.32
47054;BME280;32811;52.382;5.270;2023-04-09T12:29:15;102444.69;;;14.42;89.62
47054;BME280;32811;52.382;5.270;2023-04-09T12:31:43;102446.16;;;14.86;100.00
47054;BME280;32811;52.382;5.270;2023-04-09T12:34:10;102441.31;;;15.18;100.00
47054;BME280;32811;52.382;5.270;2023-04-09T12:36:38;102437.91;;;15.21;89.30
47054;BME280;32811;52.382;5.270;2023-04-09T12:39:08;102445.41;;;14.98;91.46
47054;BME280;32811;52.382;5.270;2023-04-09T12:41:34;102447.00;;;14.85;91.40
47054;BME280;32811;52.382;5.270;2023-04-09T12:44:01;102435.63;;;14.73;100.00
47054;BME280;32811;52.382;5.270;2023-04-09T12:46:27;102440.25;;;15.02;90.44
47054;BME280;32811;52.382;5.270;2023-04-09T12:48:54;102443.81;;;15.07;89.48
47054;BME280;32811;52.382;5.270;2023-04-09T12:51:21;102447.25;;;15.06;75.36
47054;BME280;32811;52.382;5.270;2023-04-09T12:53:48;102445.44;;;14.99;77.27
47054;BME280;32811;52.382;5.270;2023-04-09T12:56:14;102443.00;;;15.11;73.62
47054;BME280;32811;52.382;5.270;2023-04-09T12:58:41;102439.69;;;15.28;89.38
47054;BME280;32811;52.382;5.270;2023-04-09T13:01:08;102434.63;;;15.39;81.82
47054;BME280;32811;52.382;5.270;2023-04-09T13:03:34;102431.81;;;15.22;77.24
47054;BME280;32811;52.382;5.270;2023-04-09T13:06:01;102439.66;;;15.23;78.68
47054;BME280;32811;52.382;5.270;2023-04-09T13:08:28;102442.25;;;15.23;69.43